sensor_id;sensor_type;location;lat;lon;timestamp;P1;durP1;ratioP1;P2;durP2;ratioP2
8895;SDS011;4484;48.928;10.066;2024-02-26T00:02:09;3.73;;;2.13;;
8895;SDS011;4484;48.928;10.066;2024-02-26T00:04:36;4.13;;;2.60;;
8895;SDS011;4484;48.928;10.066;2024-02-26T00:07:03;2.17;;;1.97;;
8895;SDS011;4484;48.928;10.066;2024-02-26T00:09:30;2.63;;;2.10;;
8895;SDS011;4484;48.928;10.066;2024-02-26T00:11:57;2.20;;;1.90;;
8895;SDS011;4484;48.928;10.066;2024-02-26T00:14:25;3.77;;;2.10;;
8895;SDS011;4484;48.928;10.066;2024-02-26T00:16:52;2.23;;;1.90;;
8895;SDS011;4484;48.928;10.066;2024-02-26T00:19:19;3.83;;;2.23;;
8895;SDS011;4484;48.928;10.066;2024-02-26T00:21:46;3.97;;;2.40;;
8895;SDS011;4484;48.928;10.066;2024-02-26T00:24:13;3.63;;;2.50;;
8895;SDS011;4484;48.928;10.066;2024-02-26T00:26:40;3.00;;;2.43;;
8895;SDS011;4484;48.928;10.066;2024-02-26T00:29:07;2.83;;;1.90;;
8895;SDS011;4484;48.928;10.066;2024-02-26T00:31:33;2.73;;;2.33;;
8895;SDS011;4484;48.928;10.066;2024-02-26T00:34:00;2.33;;;1.87;;
8895;SDS011;4484;48.928;10.066;2024-02-26T00:36:27;4.80;;;2.93;;
8895;SDS011;4484;48.928;10.066;2024-02-26T00:38:55;2.80;;;2.17;;
8895;SDS011;4484;48.928;10.066;2024-02-26T00:41:22;3.77;;;2.17;;
8895;SDS011;4484;48.928;10.066;2024-02-26T00:43:49;5.67;;;2.50;;
8895;SDS011;4484;48.928;10.066;2024-02-26T00:46:16;3.33;;;2.50;;
8895;SDS011;4484;48.928;10.066;2024-02-26T00:48:43;3.70;;;2.90;;
8895;SDS011;4484;48.928;10.066;2024-02-26T00:51:10;3.63;;;2.20;;
8895;SDS011;4484;48.928;10.066;2024-02-26T00:53:37;2.40;;;1.87;;
8895;SDS011;4484;48.928;10.066;2024-02-26T00:56:04;3.13;;;2.13;;
8895;SDS011;4484;48.928;10.066;2024-02-26T00:58:31;3.57;;;2.47;;
8895;SDS011;4484;48.928;10.066;2024-02-26T01:00:59;2.30;;;1.83;;
8895;SDS011;4484;48.928;10.066;2024-02-26T01:03:25;3.03;;;2.40;;
8895;SDS011;4484;48.928;10.066;2024-02-26T01:05:52;2.60;;;1.80;;
8895;SDS011;4484;48.928;10.066;2024-02-26T01:08:24;2.83;;;2.00;;
8895;SDS011;4484;48.928;10.066;2024-02-26T01:10:50;3.27;;;2.10;;
8895;SDS011;4484;48.928;10.066;2024-02-26T01:13:17;2.90;;;2.00;;
8895;SDS011;4484;48.928;10.066;2024-02-26T01:15:44;3.93;;;2.37;;
8895;SDS011;4484;48.928;10.066;2024-02-26T01:18:11;2.80;;;2.20;;
8895;SDS011;4484;48.928;10.066;2024-02-26T01:20:38;3.10;;;1.97;;
8895;SDS011;4484;48.928;10.066;2024-02-26T01:23:05;2.90;;;1.80;;
8895;SDS011;4484;48.928;10.066;2024-02-26T01:25:32;2.37;;;1.73;;
8895;SDS011;4484;48.928;10.066;2024-02-26T01:27:59;1.90;;;1.47;;
8895;SDS011;4484;48.928;10.066;2024-02-26T01:30:26;3.03;;;1.80;;
8895;SDS011;4484;48.928;10.066;2024-02-26T01:32:53;1.40;;;1.30;;
8895;SDS011;4484;48.928;10.066;2024-02-26T01:35:20;2.40;;;1.50;;
8895;SDS011;4484;48.928;10.066;2024-02-26T01:37:47;1.73;;;1.50;;
8895;SDS011;4484;48.928;10.066;2024-02-26T01:40:14;1.97;;;1.60;;
8895;SDS011;4484;48.928;10.066;2024-02-26T01:42:46;1.47;;;1.13;;
8895;SDS011;4484;48.928;10.066;2024-02-26T01:45:16;2.00;;;1.50;;
8895;SDS011;4484;48.928;10.066;2024-02-26T01:47:52;1.57;;;1.43;;
8895;SDS011;4484;48.928;10.066;2024-02-26T01:50:20;1.30;;;1.10;;
8895;SDS011;4484;48.928;10.066;2024-02-26T01:52:49;3.10;;;1.73;;
8895;SDS011;4484;48.928;10.066;2024-02-26T01:55:20;1.83;;;1.57;;
8895;SDS011;4484;48.928;10.066;2024-02-26T01:57:50;1.87;;;1.50;;
8895;SDS011;4484;48.928;10.066;2024-02-26T02:00:18;1.73;;;1.27;;
8895;SDS011;4484;48.928;10.066;2024-02-26T02:02:47;1.27;;;1.13;;
8895;SDS011;4484;48.928;10.066;2024-02-26T02:05:18;1.00;;;0.90;;
8895;SDS011;4484;48.928;10.066;2024-02-26T02:07:47;1.57;;;1.30;;
8895;SDS011;4484;48.928;10.066;2024-02-26T02:10:15;1.10;;;1.00;;
8895;SDS011;4484;48.928;10.066;2024-02-26T02:12:44;1.47;;;1.27;;
8895;SDS011;4484;48.928;10.066;2024-02-26T02:15:11;2.47;;;1.63;;
8895;SDS011;4484;48.928;10.066;2024-02-26T02:17:38;1.67;;;1.40;;
8895;SDS011;4484;48.928;10.066;2024-02-26T02:20:15;1.73;;;1.27;;
8895;SDS011;4484;48.928;10.066;2024-02-26T02:22:46;2.03;;;1.50;;
8895;SDS011;4484;48.928;10.066;2024-02-26T02:25:13;2.47;;;1.40;;
8895;SDS011;4484;48.928;10.066;2024-02-26T02:27:40;2.70;;;2.00;;
8895;SDS011;4484;48.928;10.066;2024-02-26T02:30:09;3.50;;;2.10;;
8895;SDS011;4484;48.928;10.066;2024-02-26T02:32:37;3.67;;;2.20;;
8895;SDS011;4484;48.928;10.066;2024-02-26T02:35:07;3.40;;;2.37;;
8895;SDS011;4484;48.928;10.066;2024-02-26T02:37:34;3.27;;;2.17;;
8895;SDS011;4484;48.928;10.066;2024-02-26T02:40:01;3.30;;;2.33;;
8895;SDS011;4484;48.928;10.066;2024-02-26T02:42:28;3.70;;;2.13;;
8895;SDS011;4484;48.928;10.066;2024-02-26T02:44:55;2.60;;;1.80;;
8895;SDS011;4484;48.928;10.066;2024-02-26T02:47:21;2.10;;;1.90;;
8895;SDS011;4484;48.928;10.066;2024-02-26T02:49:48;2.23;;;1.60;;
8895;SDS011;4484;48.928;10.066;2024-02-26T02:52:15;2.37;;;1.73;;
8895;SDS011;4484;48.928;10.066;2024-02-26T02:54:42;3.80;;;2.30;;
8895;SDS011;4484;48.928;10.066;2024-02-26T02:57:09;2.93;;;1.80;;
8895;SDS011;4484;48.928;10.066;2024-02-26T02:59:37;4.10;;;2.40;;
8895;SDS011;4484;48.928;10.066;2024-02-26T03:02:04;3.73;;;2.40;;
8895;SDS011;4484;48.928;10.066;2024-02-26T03:04:32;3.10;;;2.50;;
8895;SDS011;4484;48.928;10.066;2024-02-26T03:06:59;3.03;;;2.50;;
8895;SDS011;4484;48.928;10.066;2024-02-26T03:09:27;4.03;;;2.60;;
8895;SDS011;4484;48.928;10.066;2024-02-26T03:11:53;6.23;;;2.20;;
8895;SDS011;4484;48.928;10.066;2024-02-26T03:14:20;2.97;;;2.13;;
8895;SDS011;4484;48.928;10.066;2024-02-26T03:16:47;2.47;;;1.67;;
8895;SDS011;4484;48.928;10.066;2024-02-26T03:19:15;4.13;;;2.73;;
8895;SDS011;4484;48.928;10.066;2024-02-26T03:21:44;5.57;;;3.07;;
8895;SDS011;4484;48.928;10.066;2024-02-26T03:24:11;4.00;;;2.90;;
8895;SDS011;4484;48.928;10.066;2024-02-26T03:26:38;3.87;;;3.30;;
8895;SDS011;4484;48.928;10.066;2024-02-26T03:29:05;5.27;;;3.20;;
8895;SDS011;4484;48.928;10.066;2024-02-26T03:31:32;4.93;;;2.93;;
8895;SDS011;4484;48.928;10.066;2024-02-26T03:33:59;4.23;;;2.93;;
8895;SDS011;4484;48.928;10.066;2024-02-26T03:36:26;4.37;;;3.13;;
8895;SDS011;4484;48.928;10.066;2024-02-26T03:38:53;4.43;;;3.10;;
8895;SDS011;4484;48.928;10.066;2024-02-26T03:41:20;2.87;;;2.60;;
8895;SDS011;4484;48.928;10.066;2024-02-26T03:43:47;4.80;;;3.10;;
8895;SDS011;4484;48.928;10.066;2024-02-26T03:46:13;4.90;;;2.60;;
8895;SDS011;4484;48.928;10.066;2024-02-26T03:48:41;2.97;;;2.40;;
8895;SDS011;4484;48.928;10.066;2024-02-26T03:51:08;3.30;;;2.60;;
8895;SDS011;4484;48.928;10.066;2024-02-26T03:53:37;4.23;;;2.83;;
8895;SDS011;4484;48.928;10.066;2024-02-26T03:56:04;5.10;;;2.73;;
8895;SDS011;4484;48.928;10.066;2024-02-26T03:58:32;4.40;;;3.47;;
8895;SDS011;4484;48.928;10.066;2024-02-26T04:00:59;3.37;;;2.33;;
8895;SDS011;4484;48.928;10.066;2024-02-26T04:03:27;4.37;;;3.07;;
8895;SDS011;4484;48.928;10.066;2024-02-26T04:05:54;3.63;;;2.67;;
8895;SDS011;4484;48.928;10.066;2024-02-26T04:08:21;4.20;;;2.87;;
8895;SDS011;4484;48.928;10.066;2024-02-26T04:10:47;3.00;;;2.30;;
8895;SDS011;4484;48.928;10.066;2024-02-26T04:13:14;3.33;;;2.60;;
8895;SDS011;4484;48.928;10.066;2024-02-26T04:15:41;2.90;;;2.30;;
8895;SDS011;4484;48.928;10.066;2024-02-26T04:18:08;3.73;;;2.30;;
8895;SDS011;4484;48.928;10.066;2024-02-26T04:20:35;8.57;;;5.07;;
8895;SDS011;4484;48.928;10.066;2024-02-26T04:23:02;7.10;;;4.97;;
8895;SDS011;4484;48.928;10.066;2024-02-26T04:25:30;5.63;;;4.10;;
8895;SDS011;4484;48.928;10.066;2024-02-26T04:27:56;5.77;;;4.03;;
8895;SDS011;4484;48.928;10.066;2024-02-26T04:30:23;5.77;;;3.60;;
8895;SDS011;4484;48.928;10.066;2024-02-26T04:32:50;4.93;;;3.47;;
8895;SDS011;4484;48.928;10.066;2024-02-26T04:35:18;4.53;;;3.33;;
8895;SDS011;4484;48.928;10.066;2024-02-26T04:37:45;3.87;;;3.30;;
8895;SDS011;4484;48.928;10.066;2024-02-26T04:40:11;4.63;;;3.63;;
8895;SDS011;4484;48.928;10.066;2024-02-26T04:42:38;5.37;;;3.63;;
8895;SDS011;4484;48.928;10.066;2024-02-26T04:45:06;6.13;;;4.57;;
8895;SDS011;4484;48.928;10.066;2024-02-26T04:47:34;6.50;;;4.17;;
8895;SDS011;4484;48.928;10.066;2024-02-26T04:50:01;9.27;;;4.60;;
8895;SDS011;4484;48.928;10.066;2024-02-26T04:52:28;5.80;;;4.17;;
8895;SDS011;4484;48.928;10.066;2024-02-26T04:54:55;5.90;;;4.00;;
8895;SDS011;4484;48.928;10.066;2024-02-26T04:57:22;6.10;;;4.20;;
8895;SDS011;4484;48.928;10.066;2024-02-26T04:59:49;6.77;;;5.20;;
8895;SDS011;4484;48.928;10.066;2024-02-26T05:02:16;5.87;;;4.20;;
8895;SDS011;4484;48.928;10.066;2024-02-26T05:04:43;5.63;;;3.80;;
8895;SDS011;4484;48.928;10.066;2024-02-26T05:07:10;6.03;;;3.90;;
8895;SDS011;4484;48.928;10.066;2024-02-26T05:09:39;5.97;;;3.80;;
8895;SDS011;4484;48.928;10.066;2024-02-26T05:12:08;3.90;;;2.90;;
8895;SDS011;4484;48.928;10.066;2024-02-26T05:14:35;5.27;;;3.37;;
8895;SDS011;4484;48.928;10.066;2024-02-26T05:17:02;4.80;;;3.90;;
8895;SDS011;4484;48.928;10.066;2024-02-26T05:19:29;5.03;;;3.60;;
8895;SDS011;4484;48.928;10.066;2024-02-26T05:21:55;4.40;;;3.53;;
8895;SDS011;4484;48.928;10.066;2024-02-26T05:24:23;6.50;;;4.27;;
8895;SDS011;4484;48.928;10.066;2024-02-26T05:26:50;9.10;;;5.13;;
8895;SDS011;4484;48.928;10.066;2024-02-26T05:29:17;10.27;;;5.47;;
8895;SDS011;4484;48.928;10.066;2024-02-26T05:31:43;8.60;;;5.03;;
8895;SDS011;4484;48.928;10.066;2024-02-26T05:34:10;7.00;;;4.40;;
8895;SDS011;4484;48.928;10.066;2024-02-26T05:36:37;7.03;;;4.70;;
8895;SDS011;4484;48.928;10.066;2024-02-26T05:39:05;7.83;;;5.27;;
8895;SDS011;4484;48.928;10.066;2024-02-26T05:41:31;7.07;;;4.57;;
8895;SDS011;4484;48.928;10.066;2024-02-26T05:43:59;7.03;;;4.97;;
8895;SDS011;4484;48.928;10.066;2024-02-26T05:46:25;19.63;;;8.30;;
8895;SDS011;4484;48.928;10.066;2024-02-26T05:48:53;13.83;;;7.63;;
8895;SDS011;4484;48.928;10.066;2024-02-26T05:51:20;7.60;;;5.73;;
8895;SDS011;4484;48.928;10.066;2024-02-26T05:53:48;11.60;;;5.57;;
8895;SDS011;4484;48.928;10.066;2024-02-26T05:56:21;9.73;;;5.60;;
8895;SDS011;4484;48.928;10.066;2024-02-26T05:58:48;9.80;;;5.37;;
8895;SDS011;4484;48.928;10.066;2024-02-26T06:01:16;6.67;;;4.70;;
8895;SDS011;4484;48.928;10.066;2024-02-26T06:03:44;6.60;;;4.83;;
8895;SDS011;4484;48.928;10.066;2024-02-26T06:06:11;8.07;;;5.50;;
8895;SDS011;4484;48.928;10.066;2024-02-26T06:08:39;7.27;;;4.90;;
8895;SDS011;4484;48.928;10.066;2024-02-26T06:11:06;7.23;;;4.93;;
8895;SDS011;4484;48.928;10.066;2024-02-26T06:13:36;6.83;;;5.23;;
8895;SDS011;4484;48.928;10.066;2024-02-26T06:16:03;7.73;;;5.30;;
8895;SDS011;4484;48.928;10.066;2024-02-26T06:18:31;6.80;;;4.73;;
8895;SDS011;4484;48.928;10.066;2024-02-26T06:20:58;6.47;;;4.83;;
8895;SDS011;4484;48.928;10.066;2024-02-26T06:23:25;9.93;;;6.33;;
8895;SDS011;4484;48.928;10.066;2024-02-26T06:25:53;10.97;;;6.23;;
8895;SDS011;4484;48.928;10.066;2024-02-26T06:28:20;10.23;;;7.70;;
8895;SDS011;4484;48.928;10.066;2024-02-26T06:30:47;9.30;;;6.13;;
8895;SDS011;4484;48.928;10.066;2024-02-26T06:33:14;11.93;;;7.23;;
8895;SDS011;4484;48.928;10.066;2024-02-26T06:35:41;11.53;;;7.60;;
8895;SDS011;4484;48.928;10.066;2024-02-26T06:38:08;9.50;;;6.20;;
8895;SDS011;4484;48.928;10.066;2024-02-26T06:40:36;8.43;;;5.37;;
8895;SDS011;4484;48.928;10.066;2024-02-26T06:43:03;9.57;;;6.17;;
8895;SDS011;4484;48.928;10.066;2024-02-26T06:45:30;11.03;;;7.80;;
8895;SDS011;4484;48.928;10.066;2024-02-26T06:47:57;9.83;;;6.77;;
8895;SDS011;4484;48.928;10.066;2024-02-26T06:50:24;9.53;;;6.17;;
8895;SDS011;4484;48.928;10.066;2024-02-26T06:52:51;10.60;;;5.90;;
8895;SDS011;4484;48.928;10.066;2024-02-26T06:55:18;8.33;;;4.57;;
8895;SDS011;4484;48.928;10.066;2024-02-26T06:57:45;8.53;;;4.80;;
8895;SDS011;4484;48.928;10.066;2024-02-26T07:00:12;8.37;;;4.97;;
8895;SDS011;4484;48.928;10.066;2024-02-26T07:02:44;7.50;;;4.90;;
8895;SDS011;4484;48.928;10.066;2024-02-26T07:05:11;6.47;;;4.40;;
8895;SDS011;4484;48.928;10.066;2024-02-26T07:07:38;6.17;;;4.43;;
8895;SDS011;4484;48.928;10.066;2024-02-26T07:10:06;6.67;;;4.50;;
8895;SDS011;4484;48.928;10.066;2024-02-26T07:12:33;8.33;;;5.23;;
8895;SDS011;4484;48.928;10.066;2024-02-26T07:15:00;8.90;;;5.97;;
8895;SDS011;4484;48.928;10.066;2024-02-26T07:17:28;10.20;;;6.60;;
8895;SDS011;4484;48.928;10.066;2024-02-26T07:19:56;9.17;;;6.20;;
8895;SDS011;4484;48.928;10.066;2024-02-26T07:22:23;8.70;;;5.50;;
8895;SDS011;4484;48.928;10.066;2024-02-26T07:24:50;9.13;;;5.80;;
8895;SDS011;4484;48.928;10.066;2024-02-26T07:27:20;7.70;;;5.07;;
8895;SDS011;4484;48.928;10.066;2024-02-26T07:29:48;5.70;;;4.20;;
8895;SDS011;4484;48.928;10.066;2024-02-26T07:32:15;5.57;;;4.07;;
8895;SDS011;4484;48.928;10.066;2024-02-26T07:34:42;5.37;;;4.10;;
8895;SDS011;4484;48.928;10.066;2024-02-26T07:37:11;5.17;;;3.77;;
8895;SDS011;4484;48.928;10.066;2024-02-26T07:39:38;4.27;;;3.80;;
8895;SDS011;4484;48.928;10.066;2024-02-26T07:42:05;6.93;;;4.17;;
8895;SDS011;4484;48.928;10.066;2024-02-26T07:44:33;6.70;;;4.17;;
8895;SDS011;4484;48.928;10.066;2024-02-26T07:47:00;6.77;;;4.37;;
8895;SDS011;4484;48.928;10.066;2024-02-26T07:49:27;6.00;;;4.57;;
8895;SDS011;4484;48.928;10.066;2024-02-26T07:51:54;6.77;;;4.90;;
8895;SDS011;4484;48.928;10.066;2024-02-26T07:54:21;7.27;;;5.33;;
8895;SDS011;4484;48.928;10.066;2024-02-26T07:56:48;7.47;;;5.27;;
8895;SDS011;4484;48.928;10.066;2024-02-26T07:59:15;7.20;;;5.60;;
8895;SDS011;4484;48.928;10.066;2024-02-26T08:01:41;6.63;;;4.80;;
8895;SDS011;4484;48.928;10.066;2024-02-26T08:04:11;7.37;;;5.10;;
8895;SDS011;4484;48.928;10.066;2024-02-26T08:06:38;8.70;;;5.70;;
8895;SDS011;4484;48.928;10.066;2024-02-26T08:09:05;7.30;;;5.07;;
8895;SDS011;4484;48.928;10.066;2024-02-26T08:11:33;5.80;;;4.80;;
8895;SDS011;4484;48.928;10.066;2024-02-26T08:14:00;7.80;;;5.47;;
8895;SDS011;4484;48.928;10.066;2024-02-26T08:16:27;8.10;;;5.53;;
8895;SDS011;4484;48.928;10.066;2024-02-26T08:18:53;8.63;;;5.47;;
8895;SDS011;4484;48.928;10.066;2024-02-26T08:21:21;8.90;;;5.87;;
8895;SDS011;4484;48.928;10.066;2024-02-26T08:23:48;7.67;;;5.13;;
8895;SDS011;4484;48.928;10.066;2024-02-26T08:26:15;8.10;;;5.30;;
8895;SDS011;4484;48.928;10.066;2024-02-26T08:28:42;8.20;;;5.90;;
8895;SDS011;4484;48.928;10.066;2024-02-26T08:31:08;8.07;;;5.50;;
8895;SDS011;4484;48.928;10.066;2024-02-26T08:33:36;8.63;;;5.73;;
8895;SDS011;4484;48.928;10.066;2024-02-26T08:36:04;8.40;;;6.07;;
8895;SDS011;4484;48.928;10.066;2024-02-26T08:38:31;8.57;;;6.40;;
8895;SDS011;4484;48.928;10.066;2024-02-26T08:41:01;8.37;;;5.10;;
8895;SDS011;4484;48.928;10.066;2024-02-26T08:43:29;8.10;;;5.80;;
8895;SDS011;4484;48.928;10.066;2024-02-26T08:45:56;7.83;;;5.83;;
8895;SDS011;4484;48.928;10.066;2024-02-26T08:48:23;7.53;;;5.63;;
8895;SDS011;4484;48.928;10.066;2024-02-26T08:50:51;8.23;;;5.77;;
8895;SDS011;4484;48.928;10.066;2024-02-26T08:53:18;7.50;;;5.57;;
8895;SDS011;4484;48.928;10.066;2024-02-26T08:55:56;9.03;;;5.73;;
8895;SDS011;4484;48.928;10.066;2024-02-26T08:58:23;9.77;;;6.70;;
8895;SDS011;4484;48.928;10.066;2024-02-26T09:00:50;7.67;;;5.47;;
8895;SDS011;4484;48.928;10.066;2024-02-26T09:03:17;7.90;;;6.00;;
8895;SDS011;4484;48.928;10.066;2024-02-26T09:05:44;9.63;;;6.40;;
8895;SDS011;4484;48.928;10.066;2024-02-26T09:08:11;8.20;;;6.07;;
8895;SDS011;4484;48.928;10.066;2024-02-26T09:10:38;9.23;;;6.70;;
8895;SDS011;4484;48.928;10.066;2024-02-26T09:13:05;8.37;;;6.30;;
8895;SDS011;4484;48.928;10.066;2024-02-26T09:15:32;8.50;;;6.43;;
8895;SDS011;4484;48.928;10.066;2024-02-26T09:17:59;12.37;;;8.40;;
8895;SDS011;4484;48.928;10.066;2024-02-26T09:20:27;10.40;;;6.70;;
8895;SDS011;4484;48.928;10.066;2024-02-26T09:22:53;9.20;;;6.20;;
8895;SDS011;4484;48.928;10.066;2024-02-26T09:25:20;9.27;;;6.50;;
8895;SDS011;4484;48.928;10.066;2024-02-26T09:27:48;8.30;;;5.83;;
8895;SDS011;4484;48.928;10.066;2024-02-26T09:30:14;7.13;;;5.73;;
8895;SDS011;4484;48.928;10.066;2024-02-26T09:32:45;8.23;;;5.90;;
8895;SDS011;4484;48.928;10.066;2024-02-26T09:35:13;7.53;;;6.10;;
8895;SDS011;4484;48.928;10.066;2024-02-26T09:37:40;8.43;;;5.50;;
8895;SDS011;4484;48.928;10.066;2024-02-26T09:40:10;9.93;;;6.00;;
8895;SDS011;4484;48.928;10.066;2024-02-26T09:42:41;6.70;;;5.10;;
8895;SDS011;4484;48.928;10.066;2024-02-26T09:45:11;6.57;;;5.03;;
8895;SDS011;4484;48.928;10.066;2024-02-26T09:47:44;6.93;;;5.10;;
8895;SDS011;4484;48.928;10.066;2024-02-26T09:50:11;7.57;;;5.73;;
8895;SDS011;4484;48.928;10.066;2024-02-26T09:52:41;6.90;;;5.20;;
8895;SDS011;4484;48.928;10.066;2024-02-26T09:55:08;8.00;;;5.70;;
8895;SDS011;4484;48.928;10.066;2024-02-26T09:57:38;8.30;;;5.83;;
8895;SDS011;4484;48.928;10.066;2024-02-26T10:00:10;8.03;;;6.17;;
8895;SDS011;4484;48.928;10.066;2024-02-26T10:02:47;8.63;;;6.03;;
8895;SDS011;4484;48.928;10.066;2024-02-26T10:05:18;9.17;;;6.33;;
8895;SDS011;4484;48.928;10.066;2024-02-26T10:07:45;8.83;;;5.90;;
8895;SDS011;4484;48.928;10.066;2024-02-26T10:10:17;9.20;;;5.80;;
8895;SDS011;4484;48.928;10.066;2024-02-26T10:12:44;7.97;;;6.10;;
8895;SDS011;4484;48.928;10.066;2024-02-26T10:15:11;7.97;;;5.90;;
8895;SDS011;4484;48.928;10.066;2024-02-26T10:17:38;9.90;;;6.47;;
8895;SDS011;4484;48.928;10.066;2024-02-26T10:20:15;7.90;;;5.70;;
8895;SDS011;4484;48.928;10.066;2024-02-26T10:22:48;8.43;;;5.87;;
8895;SDS011;4484;48.928;10.066;2024-02-26T10:25:16;8.60;;;6.17;;
8895;SDS011;4484;48.928;10.066;2024-02-26T10:27:45;6.33;;;5.30;;
8895;SDS011;4484;48.928;10.066;2024-02-26T10:30:15;9.10;;;6.23;;
8895;SDS011;4484;48.928;10.066;2024-02-26T10:32:46;6.87;;;5.60;;
8895;SDS011;4484;48.928;10.066;2024-02-26T10:35:16;6.97;;;4.90;;
8895;SDS011;4484;48.928;10.066;2024-02-26T10:37:47;6.50;;;4.77;;
8895;SDS011;4484;48.928;10.066;2024-02-26T10:40:15;6.33;;;5.10;;
8895;SDS011;4484;48.928;10.066;2024-02-26T10:42:43;8.83;;;4.40;;
8895;SDS011;4484;48.928;10.066;2024-02-26T10:45:12;7.27;;;4.73;;
8895;SDS011;4484;48.928;10.066;2024-02-26T10:47:40;6.60;;;3.93;;
8895;SDS011;4484;48.928;10.066;2024-02-26T10:50:08;5.17;;;3.70;;
8895;SDS011;4484;48.928;10.066;2024-02-26T10:52:36;6.20;;;4.17;;
8895;SDS011;4484;48.928;10.066;2024-02-26T10:55:04;4.90;;;4.10;;
8895;SDS011;4484;48.928;10.066;2024-02-26T10:57:34;7.80;;;4.87;;
8895;SDS011;4484;48.928;10.066;2024-02-26T11:00:06;7.73;;;4.17;;
8895;SDS011;4484;48.928;10.066;2024-02-26T11:02:37;6.07;;;4.30;;
8895;SDS011;4484;48.928;10.066;2024-02-26T11:05:05;7.53;;;3.83;;
8895;SDS011;4484;48.928;10.066;2024-02-26T11:07:36;5.17;;;3.63;;
8895;SDS011;4484;48.928;10.066;2024-02-26T11:10:04;5.27;;;3.97;;
8895;SDS011;4484;48.928;10.066;2024-02-26T11:12:34;3.90;;;3.40;;
8895;SDS011;4484;48.928;10.066;2024-02-26T11:15:04;5.20;;;3.90;;
8895;SDS011;4484;48.928;10.066;2024-02-26T11:17:31;6.43;;;4.67;;
8895;SDS011;4484;48.928;10.066;2024-02-26T11:20:00;6.60;;;4.37;;
8895;SDS011;4484;48.928;10.066;2024-02-26T11:22:30;7.47;;;4.70;;
8895;SDS011;4484;48.928;10.066;2024-02-26T11:24:58;7.20;;;5.20;;
8895;SDS011;4484;48.928;10.066;2024-02-26T11:27:28;8.63;;;5.47;;
8895;SDS011;4484;48.928;10.066;2024-02-26T11:30:00;8.20;;;5.23;;
8895;SDS011;4484;48.928;10.066;2024-02-26T11:32:28;9.97;;;5.70;;
8895;SDS011;4484;48.928;10.066;2024-02-26T11:35:00;8.30;;;5.67;;
8895;SDS011;4484;48.928;10.066;2024-02-26T11:37:27;9.60;;;6.10;;
8895;SDS011;4484;48.928;10.066;2024-02-26T11:39:54;8.33;;;5.87;;
8895;SDS011;4484;48.928;10.066;2024-02-26T11:42:24;8.37;;;5.97;;
8895;SDS011;4484;48.928;10.066;2024-02-26T11:44:52;8.30;;;6.10;;
8895;SDS011;4484;48.928;10.066;2024-02-26T11:47:20;6.87;;;5.00;;
8895;SDS011;4484;48.928;10.066;2024-02-26T11:49:48;8.27;;;4.70;;
8895;SDS011;4484;48.928;10.066;2024-02-26T11:52:16;6.17;;;3.90;;
8895;SDS011;4484;48.928;10.066;2024-02-26T11:54:49;4.53;;;2.87;;
8895;SDS011;4484;48.928;10.066;2024-02-26T11:59:49;6.60;;;3.27;;
8895;SDS011;4484;48.928;10.066;2024-02-26T12:05:15;4.77;;;3.23;;
8895;SDS011;4484;48.928;10.066;2024-02-26T12:07:45;5.40;;;3.80;;
8895;SDS011;4484;48.928;10.066;2024-02-26T12:12:46;6.43;;;4.37;;
8895;SDS011;4484;48.928;10.066;2024-02-26T12:15:14;6.03;;;4.50;;
8895;SDS011;4484;48.928;10.066;2024-02-26T12:17:42;6.23;;;4.47;;
8895;SDS011;4484;48.928;10.066;2024-02-26T12:20:16;6.27;;;4.40;;
8895;SDS011;4484;48.928;10.066;2024-02-26T12:22:44;9.57;;;5.60;;
8895;SDS011;4484;48.928;10.066;2024-02-26T12:25:14;8.50;;;5.40;;
8895;SDS011;4484;48.928;10.066;2024-02-26T12:27:42;7.00;;;4.77;;
8895;SDS011;4484;48.928;10.066;2024-02-26T12:30:09;6.67;;;4.60;;
8895;SDS011;4484;48.928;10.066;2024-02-26T12:32:36;9.47;;;5.50;;
8895;SDS011;4484;48.928;10.066;2024-02-26T12:35:03;7.17;;;5.10;;
8895;SDS011;4484;48.928;10.066;2024-02-26T12:37:32;7.23;;;4.67;;
8895;SDS011;4484;48.928;10.066;2024-02-26T12:39:59;6.67;;;4.40;;
8895;SDS011;4484;48.928;10.066;2024-02-26T12:42:26;6.40;;;4.13;;
8895;SDS011;4484;48.928;10.066;2024-02-26T12:44:53;7.50;;;4.70;;
8895;SDS011;4484;48.928;10.066;2024-02-26T12:47:20;7.10;;;4.83;;
8895;SDS011;4484;48.928;10.066;2024-02-26T12:49:47;10.10;;;5.10;;
8895;SDS011;4484;48.928;10.066;2024-02-26T12:52:16;5.33;;;4.30;;
8895;SDS011;4484;48.928;10.066;2024-02-26T12:54:43;9.30;;;4.83;;
8895;SDS011;4484;48.928;10.066;2024-02-26T12:57:12;7.30;;;3.60;;
8895;SDS011;4484;48.928;10.066;2024-02-26T12:59:39;4.50;;;2.77;;
8895;SDS011;4484;48.928;10.066;2024-02-26T13:02:06;4.53;;;3.33;;
8895;SDS011;4484;48.928;10.066;2024-02-26T13:04:34;6.13;;;4.10;;
8895;SDS011;4484;48.928;10.066;2024-02-26T13:07:03;4.60;;;3.17;;
8895;SDS011;4484;48.928;10.066;2024-02-26T13:09:34;5.10;;;3.50;;
8895;SDS011;4484;48.928;10.066;2024-02-26T13:12:05;4.63;;;2.80;;
8895;SDS011;4484;48.928;10.066;2024-02-26T13:14:33;5.50;;;3.13;;
8895;SDS011;4484;48.928;10.066;2024-02-26T13:17:00;6.83;;;3.60;;
8895;SDS011;4484;48.928;10.066;2024-02-26T13:19:28;5.73;;;3.13;;
8895;SDS011;4484;48.928;10.066;2024-02-26T13:21:55;5.83;;;2.97;;
8895;SDS011;4484;48.928;10.066;2024-02-26T13:24:29;5.00;;;3.43;;
8895;SDS011;4484;48.928;10.066;2024-02-26T13:26:57;5.00;;;3.60;;
8895;SDS011;4484;48.928;10.066;2024-02-26T13:29:24;4.97;;;3.13;;
8895;SDS011;4484;48.928;10.066;2024-02-26T13:31:57;5.43;;;3.20;;
8895;SDS011;4484;48.928;10.066;2024-02-26T13:36:53;7.87;;;4.27;;
8895;SDS011;4484;48.928;10.066;2024-02-26T13:39:24;5.33;;;3.73;;
8895;SDS011;4484;48.928;10.066;2024-02-26T13:41:53;5.80;;;3.57;;
8895;SDS011;4484;48.928;10.066;2024-02-26T13:44:20;5.87;;;4.07;;
8895;SDS011;4484;48.928;10.066;2024-02-26T13:46:47;4.60;;;3.37;;
8895;SDS011;4484;48.928;10.066;2024-02-26T13:49:15;7.67;;;4.27;;
8895;SDS011;4484;48.928;10.066;2024-02-26T13:51:43;7.20;;;4.50;;
8895;SDS011;4484;48.928;10.066;2024-02-26T13:54:10;6.83;;;4.37;;
8895;SDS011;4484;48.928;10.066;2024-02-26T13:56:37;7.83;;;3.20;;
8895;SDS011;4484;48.928;10.066;2024-02-26T13:59:04;8.63;;;3.23;;
8895;SDS011;4484;48.928;10.066;2024-02-26T14:01:31;6.50;;;3.87;;
8895;SDS011;4484;48.928;10.066;2024-02-26T14:03:59;8.93;;;3.80;;
8895;SDS011;4484;48.928;10.066;2024-02-26T14:06:29;5.37;;;3.33;;
8895;SDS011;4484;48.928;10.066;2024-02-26T14:08:57;6.93;;;3.50;;
8895;SDS011;4484;48.928;10.066;2024-02-26T14:11:25;4.60;;;2.93;;
8895;SDS011;4484;48.928;10.066;2024-02-26T14:13:52;4.97;;;3.23;;
8895;SDS011;4484;48.928;10.066;2024-02-26T14:16:19;4.13;;;2.83;;
8895;SDS011;4484;48.928;10.066;2024-02-26T14:18:46;6.03;;;3.10;;
8895;SDS011;4484;48.928;10.066;2024-02-26T14:21:14;4.43;;;2.90;;
8895;SDS011;4484;48.928;10.066;2024-02-26T14:23:41;3.50;;;2.87;;
8895;SDS011;4484;48.928;10.066;2024-02-26T14:26:10;5.70;;;2.83;;
8895;SDS011;4484;48.928;10.066;2024-02-26T14:28:37;7.57;;;3.00;;
8895;SDS011;4484;48.928;10.066;2024-02-26T14:31:05;3.80;;;2.97;;
8895;SDS011;4484;48.928;10.066;2024-02-26T14:33:33;4.93;;;3.40;;
8895;SDS011;4484;48.928;10.066;2024-02-26T14:36:01;5.87;;;3.50;;
8895;SDS011;4484;48.928;10.066;2024-02-26T14:38:28;6.47;;;4.27;;
8895;SDS011;4484;48.928;10.066;2024-02-26T14:40:55;8.33;;;4.97;;
8895;SDS011;4484;48.928;10.066;2024-02-26T14:43:22;8.27;;;4.70;;
8895;SDS011;4484;48.928;10.066;2024-02-26T14:45:48;7.90;;;3.87;;
8895;SDS011;4484;48.928;10.066;2024-02-26T14:48:15;3.83;;;2.83;;
8895;SDS011;4484;48.928;10.066;2024-02-26T14:50:42;4.03;;;2.60;;
8895;SDS011;4484;48.928;10.066;2024-02-26T14:53:09;4.70;;;3.23;;
8895;SDS011;4484;48.928;10.066;2024-02-26T14:55:36;2.87;;;2.47;;
8895;SDS011;4484;48.928;10.066;2024-02-26T14:58:07;2.80;;;2.23;;
8895;SDS011;4484;48.928;10.066;2024-02-26T15:00:35;2.93;;;2.27;;
8895;SDS011;4484;48.928;10.066;2024-02-26T15:03:03;3.53;;;2.50;;
8895;SDS011;4484;48.928;10.066;2024-02-26T15:05:30;2.40;;;1.83;;
8895;SDS011;4484;48.928;10.066;2024-02-26T15:07:57;2.63;;;2.00;;
8895;SDS011;4484;48.928;10.066;2024-02-26T15:10:25;3.03;;;2.57;;
8895;SDS011;4484;48.928;10.066;2024-02-26T15:12:52;4.00;;;2.50;;
8895;SDS011;4484;48.928;10.066;2024-02-26T15:15:21;3.27;;;2.13;;